Time;durP1;ratioP1;P1;durP2;ratioP2;P2;SDS_P1;SDS_P2;PMS_P1;PMS_P2;Temp;Humidity;BMP_temperature;BMP_pressure;BME280_temperature;BME280_humidity;BME280_pressure;Samples;Min_cycle;Max_cycle;Signal;HPM_P1;HPM_P2
2022/09/18 00:00:50;;;;;;;5.90;5.33;;;;;;;8.52;100.00;96778.22;4993660;28;20270;-65
2022/09/18 00:03:16;;;;;;;5.17;4.73;;;;;;;8.48;100.00;96775.22;4975609;28;20653;-65
2022/09/18 00:05:42;;;;;;;6.57;5.60;;;;;;;8.46;100.00;96776.47;4976135;28;20220;-66
2022/09/18 00:08:08;;;;;;;6.30;5.70;;;;;;;8.49;100.00;96784.66;4994081;28;20191;-65
2022/09/18 00:10:39;;;;;;;6.10;5.60;;;;;;;8.45;100.00;96786.13;4994685;28;20196;-65
2022/09/18 00:13:05;;;;;;;6.63;5.93;;;;;;;8.52;100.00;96779.03;4984601;28;20289;-65
2022/09/18 00:15:30;;;;;;;6.90;6.20;;;;;;;8.57;100.00;96783.63;4976089;28;20788;-64
2022/09/18 00:17:55;;;;;;;7.63;5.50;;;;;;;8.57;100.00;96781.00;4992767;28;20548;-65
2022/09/18 00:20:21;;;;;;;6.57;5.67;;;;;;;8.47;100.00;96778.84;4995371;28;20538;-65
2022/09/18 00:22:46;;;;;;;6.63;5.83;;;;;;;8.53;100.00;96790.25;4994808;28;20220;-65
2022/09/18 00:25:12;;;;;;;6.27;5.67;;;;;;;8.46;100.00;96790.34;4990626;28;20180;-65
2022/09/18 00:27:37;;;;;;;5.73;5.27;;;;;;;8.42;100.00;96788.34;4977183;28;20196;-65
2022/09/18 00:30:03;;;;;;;7.63;5.50;;;;;;;8.41;100.00;96784.94;4994359;28;20183;-65
2022/09/18 00:32:29;;;;;;;6.10;5.37;;;;;;;8.45;100.00;96795.75;4994097;28;20660;-65
2022/09/18 00:34:54;;;;;;;8.23;5.53;;;;;;;8.49;100.00;96789.09;4984437;28;20180;-66
2022/09/18 00:37:19;;;;;;;6.17;5.57;;;;;;;8.45;100.00;96790.53;4975452;28;20188;-66
2022/09/18 00:39:45;;;;;;;6.47;5.87;;;;;;;8.55;100.00;96796.88;4975480;28;20240;-65
2022/09/18 00:42:11;;;;;;;6.50;6.00;;;;;;;8.56;100.00;96793.25;4975643;28;20297;-65
2022/09/18 00:44:46;;;;;;;5.70;5.20;;;;;;;8.52;100.00;96789.47;4983070;28;20188;-65
2022/09/18 00:47:44;;;;;;;9.23;6.40;;;;;;;8.46;100.00;96787.72;4994610;28;20183;-65
2022/09/18 00:50:13;;;;;;;7.37;5.07;;;;;;;8.49;100.00;96794.31;4975312;28;20185;-65
2022/09/18 00:52:56;;;;;;;6.13;5.30;;;;;;;8.52;100.00;96794.72;4975088;28;20212;-64
2022/09/18 00:55:27;;;;;;;6.50;5.20;;;;;;;8.54;100.00;96795.28;4975182;28;20196;-65
2022/09/18 00:57:55;;;;;;;7.30;6.03;;;;;;;8.55;100.00;96794.28;4975926;28;20605;-64
2022/09/18 01:00:22;;;;;;;6.37;5.57;;;;;;;8.54;100.00;96792.66;4988643;28;20185;-64
2022/09/18 01:02:48;;;;;;;6.40;5.60;;;;;;;8.49;100.00;96799.53;4976083;28;20638;-63
2022/09/18 01:05:18;;;;;;;6.10;5.57;;;;;;;8.50;100.00;96794.13;4993998;28;20191;-63
2022/09/18 01:07:54;;;;;;;6.20;5.60;;;;;;;8.46;100.00;96789.53;4992627;28;20176;-64
2022/09/18 01:10:57;;;;;;;6.50;5.63;;;;;;;8.57;100.00;96792.25;4975279;28;20188;-63
2022/09/18 01:13:44;;;;;;;5.83;5.40;;;;;;;8.53;100.00;96792.88;4963083;28;20195;-63
2022/09/18 01:16:10;;;;;;;6.57;6.00;;;;;;;8.55;100.00;96791.66;4981323;28;20558;-64
2022/09/18 01:18:55;;;;;;;5.77;5.13;;;;;;;8.51;100.00;96795.72;4974801;28;20196;-64
2022/09/18 01:21:37;;;;;;;6.63;5.10;;;;;;;8.64;100.00;96795.59;4980266;28;20183;-64
2022/09/18 01:24:20;;;;;;;9.93;6.50;;;;;;;8.59;100.00;96799.84;4978430;28;20185;-64
2022/09/18 01:26:45;;;;;;;7.07;6.37;;;;;;;8.65;100.00;96801.63;4962294;28;20188;-63
2022/09/18 01:29:46;;;;;;;6.73;6.27;;;;;;;8.59;100.00;96803.28;4976560;28;20195;-64
2022/09/18 01:32:29;;;;;;;6.03;5.50;;;;;;;8.61;100.00;96803.88;4985110;28;20335;-65
2022/09/18 01:35:13;;;;;;;10.77;5.50;;;;;;;8.59;100.00;96807.69;4974434;28;20188;-64
2022/09/18 01:38:02;;;;;;;6.00;5.60;;;;;;;8.46;100.00;96800.78;4974067;28;20648;-64
2022/09/18 01:40:35;;;;;;;5.57;5.07;;;;;;;8.49;100.00;96799.53;4992216;28;20255;-64
2022/09/18 01:43:07;;;;;;;12.60;11.33;;;;;;;8.42;100.00;96802.19;4975701;28;20710;-64
2022/09/18 01:45:37;;;;;;;10.20;9.30;;;;;;;8.56;100.00;96795.06;4993568;28;20171;-64
2022/09/18 01:48:06;;;;;;;10.93;10.00;;;;;;;8.56;100.00;96792.47;4979011;28;20263;-64
2022/09/18 01:50:36;;;;;;;11.53;10.53;;;;;;;8.55;100.00;96786.44;4974316;28;20201;-64
2022/09/18 01:53:10;;;;;;;9.43;8.67;;;;;;;8.47;100.00;96789.28;4979872;28;20263;-64
2022/09/18 01:55:39;;;;;;;8.90;8.10;;;;;;;8.53;100.00;96785.84;4992385;28;20259;-64
2022/09/18 01:58:16;;;;;;;9.43;6.80;;;;;;;8.58;100.00;96786.00;4993203;28;20496;-64
2022/09/18 02:00:47;;;;;;;8.63;5.77;;;;;;;8.56;100.00;96788.03;4993063;28;20179;-64
2022/09/18 02:03:21;;;;;;;5.97;5.33;;;;;;;8.50;100.00;96785.47;4992943;28;20298;-64
2022/09/18 02:05:54;;;;;;;8.07;4.43;;;;;;;8.60;100.00;96777.94;4992639;28;20176;-64
2022/09/18 02:08:26;;;;;;;6.73;5.30;;;;;;;8.68;100.00;96773.28;4991888;28;20211;-65
2022/09/18 02:10:57;;;;;;;12.80;6.70;;;;;;;8.59;100.00;96774.53;4973312;28;20608;-64
2022/09/18 02:13:29;;;;;;;7.27;6.53;;;;;;;8.63;100.00;96775.72;4981870;28;20203;-64
2022/09/18 02:16:02;;;;;;;8.13;7.43;;;;;;;8.55;100.00;96767.34;4990563;28;20216;-64
2022/09/18 02:18:33;;;;;;;7.53;6.97;;;;;;;8.61;100.00;96766.50;4974993;28;20191;-64
2022/09/18 02:20:59;;;;;;;6.50;5.77;;;;;;;8.65;100.00;96765.84;4973805;28;20607;-64
2022/09/18 02:23:27;;;;;;;4.43;4.00;;;;;;;8.62;100.00;96761.06;4973647;28;20305;-64
2022/09/18 02:25:58;;;;;;;4.30;4.00;;;;;;;8.60;100.00;96762.28;4973743;28;20193;-64
2022/09/18 02:28:27;;;;;;;5.47;4.57;;;;;;;8.64;100.00;96768.66;4973925;28;20184;-64
2022/09/18 02:30:52;;;;;;;4.77;4.37;;;;;;;8.71;100.00;96758.97;4972332;28;20255;-64
2022/09/18 02:33:44;;;;;;;5.43;5.03;;;;;;;8.63;100.00;96767.09;4972074;28;20192;-64
2022/09/18 02:36:42;;;;;;;5.03;4.53;;;;;;;8.72;100.00;96766.59;4974867;28;20291;-65
2022/09/18 02:39:16;;;;;;;5.97;5.23;;;;;;;8.62;100.00;96768.91;4992835;28;20188;-64
2022/09/18 02:41:56;;;;;;;10.47;4.90;;;;;;;8.65;100.00;96760.63;4991101;28;20198;-64
2022/09/18 02:44:41;;;;;;;5.43;4.90;;;;;;;8.65;100.00;96758.00;4977857;28;20250;-64
2022/09/18 02:47:24;;;;;;;5.10;4.77;;;;;;;8.76;100.00;96759.91;4992783;28;20510;-64
2022/09/18 02:50:27;;;;;;;6.87;6.07;;;;;;;8.70;100.00;96755.53;4992520;28;20314;-65
2022/09/18 02:53:31;;;;;;;7.40;6.80;;;;;;;8.68;100.00;96762.00;4928220;28;20193;-64
2022/09/18 02:56:21;;;;;;;7.77;6.90;;;;;;;8.66;100.00;96762.22;4974919;28;20200;-65
2022/09/18 02:58:52;;;;;;;8.80;7.17;;;;;;;8.55;100.00;96756.91;4982278;28;20518;-64
2022/09/18 03:01:20;;;;;;;10.73;6.43;;;;;;;8.57;100.00;96754.88;4996330;28;20184;-63
2022/09/18 03:03:46;;;;;;;6.87;6.47;;;;;;;8.52;100.00;96762.56;4984129;28;20197;-63
2022/09/18 03:06:12;;;;;;;9.47;8.50;;;;;;;8.49;100.00;96755.13;4992467;28;20207;-64
2022/09/18 03:08:37;;;;;;;8.13;7.47;;;;;;;8.50;100.00;96760.16;4992324;28;20641;-64
2022/09/18 03:11:03;;;;;;;10.67;9.97;;;;;;;8.54;100.00;96756.09;4981914;28;20216;-64
2022/09/18 03:13:28;;;;;;;8.80;8.03;;;;;;;8.59;100.00;96752.84;4995967;28;20191;-64
2022/09/18 03:15:54;;;;;;;10.03;9.13;;;;;;;8.50;100.00;96749.72;4995998;28;20193;-64
2022/09/18 03:18:20;;;;;;;10.33;9.60;;;;;;;8.41;100.00;96750.19;4977450;28;20550;-64
2022/09/18 03:20:46;;;;;;;9.80;9.10;;;;;;;8.38;100.00;96750.59;4977595;28;20193;-64
2022/09/18 03:23:11;;;;;;;10.03;8.90;;;;;;;8.45;100.00;96746.94;4995821;28;20662;-64
2022/09/18 03:25:36;;;;;;;14.03;13.27;;;;;;;8.46;100.00;96745.13;4988828;28;20239;-64
2022/09/18 03:28:02;;;;;;;18.00;16.60;;;;;;;8.38;100.00;96746.19;4976778;28;20196;-63
2022/09/18 03:30:27;;;;;;;15.17;14.17;;;;;;;8.49;100.00;96749.91;4976706;28;20288;-64
2022/09/18 03:32:52;;;;;;;13.87;12.77;;;;;;;8.48;100.00;96746.50;4976268;28;20521;-64
2022/09/18 03:35:19;;;;;;;13.00;11.90;;;;;;;8.45;100.00;96752.16;4985174;28;20215;-64
2022/09/18 03:37:44;;;;;;;10.97;10.20;;;;;;;8.42;100.00;96743.94;4984344;28;20282;-64
2022/09/18 03:40:10;;;;;;;12.27;11.10;;;;;;;8.46;100.00;96756.38;4976614;28;20610;-64
2022/09/18 03:42:36;;;;;;;11.93;11.13;;;;;;;8.39;100.00;96741.75;4976170;28;20196;-64
2022/09/18 03:45:02;;;;;;;11.13;10.13;;;;;;;8.55;100.00;96744.63;4976436;28;20185;-64
2022/09/18 03:47:27;;;;;;;10.30;9.33;;;;;;;8.53;100.00;96745.84;4976545;28;20625;-64
2022/09/18 03:49:52;;;;;;;10.83;10.17;;;;;;;8.44;100.00;96732.28;4987177;28;20543;-64
2022/09/18 03:52:18;;;;;;;11.17;10.50;;;;;;;8.46;100.00;96737.28;4976324;28;20243;-64
2022/09/18 03:54:43;;;;;;;10.27;9.57;;;;;;;8.53;100.00;96736.22;4976335;28;20579;-64
2022/09/18 03:57:09;;;;;;;9.87;9.37;;;;;;;8.61;100.00;96741.16;4986673;28;20188;-64
2022/09/18 03:59:34;;;;;;;9.67;8.97;;;;;;;8.56;100.00;96750.66;4995177;28;20180;-64
2022/09/18 04:02:00;;;;;;;10.43;9.73;;;;;;;8.51;100.00;96748.69;4974389;28;20193;-64
2022/09/18 04:04:25;;;;;;;8.43;7.93;;;;;;;8.47;100.00;96750.13;4975477;28;20180;-64
2022/09/18 04:06:51;;;;;;;10.63;9.73;;;;;;;8.41;100.00;96760.66;4992702;28;20188;-64
2022/09/18 04:09:16;;;;;;;10.90;10.10;;;;;;;8.40;100.00;96757.22;4993847;28;20192;-64
2022/09/18 04:11:42;;;;;;;10.53;9.70;;;;;;;8.41;100.00;96761.44;4984546;28;20339;-64
2022/09/18 04:14:07;;;;;;;11.00;10.10;;;;;;;8.47;100.00;96765.00;4988520;28;20258;-64
2022/09/18 04:16:33;;;;;;;9.70;9.10;;;;;;;8.54;100.00;96766.53;4994614;28;20184;-64
2022/09/18 04:18:58;;;;;;;9.03;8.53;;;;;;;8.53;100.00;96766.75;4991454;28;20238;-64
2022/09/18 04:21:23;;;;;;;8.83;7.93;;;;;;;8.53;100.00;96770.16;4975873;28;20224;-65
2022/09/18 04:23:49;;;;;;;7.43;6.97;;;;;;;8.51;100.00;96777.44;4985706;28;20235;-64
2022/09/18 04:26:14;;;;;;;7.33;6.60;;;;;;;8.41;100.00;96765.88;4989477;28;20179;-64
2022/09/18 04:28:39;;;;;;;8.37;7.87;;;;;;;8.37;100.00;96765.47;4994352;28;20534;-64
2022/09/18 04:31:05;;;;;;;7.63;7.13;;;;;;;8.49;100.00;96771.63;4994802;28;20212;-64
2022/09/18 04:33:31;;;;;;;8.90;8.20;;;;;;;8.48;100.00;96782.25;4994377;28;20190;-64
2022/09/18 04:35:56;;;;;;;9.90;9.10;;;;;;;8.34;100.00;96784.19;4993854;28;20243;-64
2022/09/18 04:38:26;;;;;;;8.30;7.90;;;;;;;8.43;100.00;96772.47;4994557;28;20295;-64
2022/09/18 04:40:59;;;;;;;7.50;6.97;;;;;;;8.46;100.00;96769.44;4977299;28;20187;-64
2022/09/18 04:43:26;;;;;;;8.70;8.10;;;;;;;8.47;100.00;96762.41;4977500;28;20224;-64
2022/09/18 04:45:51;;;;;;;9.80;9.20;;;;;;;8.41;100.00;96771.91;4975103;28;20188;-64
2022/09/18 04:48:18;;;;;;;9.53;9.00;;;;;;;8.48;100.00;96767.41;4976410;28;20244;-64
2022/09/18 04:50:45;;;;;;;10.20;9.33;;;;;;;8.46;100.00;96764.22;4985930;28;20230;-64
2022/09/18 04:53:11;;;;;;;9.50;8.77;;;;;;;8.37;100.00;96768.09;4994325;28;20241;-64
2022/09/18 04:55:36;;;;;;;9.67;8.87;;;;;;;8.38;100.00;96768.88;4994190;28;20196;-64
2022/09/18 04:58:02;;;;;;;8.20;7.80;;;;;;;8.39;100.00;96770.50;4983945;28;20227;-64
2022/09/18 05:00:27;;;;;;;8.00;7.37;;;;;;;8.45;100.00;96767.03;4974855;28;20180;-64
2022/09/18 05:02:53;;;;;;;9.07;8.57;;;;;;;8.41;100.00;96761.44;4987098;28;20219;-64
2022/09/18 05:05:18;;;;;;;8.70;8.30;;;;;;;8.51;100.00;96764.38;4993799;28;20195;-67
2022/09/18 05:07:43;;;;;;;7.37;6.77;;;;;;;8.53;100.00;96772.78;4986566;28;20188;-64
2022/09/18 05:10:09;;;;;;;8.53;8.00;;;;;;;8.51;100.00;96769.59;4977248;28;20211;-64
2022/09/18 05:12:37;;;;;;;9.93;9.23;;;;;;;8.56;100.00;96782.00;4993756;28;20270;-63
2022/09/18 05:15:03;;;;;;;9.27;8.50;;;;;;;8.59;100.00;96779.75;4994189;28;20180;-64
2022/09/18 05:17:29;;;;;;;10.07;9.47;;;;;;;8.60;100.00;96785.78;4981071;28;20206;-64
2022/09/18 05:19:55;;;;;;;11.67;10.47;;;;;;;8.67;100.00;96781.31;4973231;28;20185;-64
2022/09/18 05:22:20;;;;;;;11.13;10.43;;;;;;;8.68;100.00;96785.53;4982302;28;20690;-64
2022/09/18 05:24:45;;;;;;;11.97;10.97;;;;;;;8.58;100.00;96788.59;4993532;28;20184;-64
2022/09/18 05:27:10;;;;;;;12.20;11.17;;;;;;;8.69;100.00;96790.53;4993709;28;20188;-64
2022/09/18 05:29:36;;;;;;;11.13;10.13;;;;;;;8.70;100.00;96799.97;4993352;28;20191;-64
2022/09/18 05:32:02;;;;;;;10.43;9.83;;;;;;;8.66;100.00;96803.22;4982414;28;20696;-65
2022/09/18 05:34:27;;;;;;;10.47;9.80;;;;;;;8.54;100.00;96797.88;4974749;28;20193;-64
2022/09/18 05:36:52;;;;;;;11.83;11.13;;;;;;;8.66;100.00;96792.78;4972943;28;20251;-64
2022/09/18 05:39:18;;;;;;;13.03;12.33;;;;;;;8.67;100.00;96795.19;4974271;28;20192;-64
2022/09/18 05:41:43;;;;;;;11.83;11.17;;;;;;;8.76;100.00;96787.84;4973947;28;20657;-64
2022/09/18 05:44:08;;;;;;;11.33;10.60;;;;;;;8.66;100.00;96796.19;4985547;28;20194;-64
2022/09/18 05:46:34;;;;;;;10.77;9.93;;;;;;;8.63;100.00;96801.06;4989547;28;20245;-64
2022/09/18 05:48:59;;;;;;;10.73;10.13;;;;;;;8.73;100.00;96801.38;4974046;28;20181;-64
2022/09/18 05:51:24;;;;;;;10.93;10.23;;;;;;;8.71;100.00;96806.78;4974023;28;20579;-64
2022/09/18 05:53:50;;;;;;;11.30;10.60;;;;;;;8.66;100.00;96803.22;4972627;28;20199;-64
2022/09/18 05:56:15;;;;;;;11.87;11.13;;;;;;;8.74;100.00;96795.13;4974161;28;20188;-65
2022/09/18 05:58:41;;;;;;;10.77;10.17;;;;;;;8.67;100.00;96795.19;4993353;28;20188;-64
2022/09/18 06:01:06;;;;;;;12.20;11.27;;;;;;;8.79;100.00;96799.72;4992892;28;20268;-65
2022/09/18 06:03:32;;;;;;;10.80;9.80;;;;;;;8.79;100.00;96797.91;4977085;28;20243;-64
2022/09/18 06:05:57;;;;;;;11.13;10.30;;;;;;;8.67;100.00;96797.78;4973939;28;20196;-64
2022/09/18 06:08:23;;;;;;;11.33;10.53;;;;;;;8.76;100.00;96804.34;4982794;28;20192;-64
2022/09/18 06:10:48;;;;;;;11.80;10.73;;;;;;;8.71;100.00;96804.19;4982080;28;20186;-64
2022/09/18 06:13:16;;;;;;;10.97;10.37;;;;;;;8.84;100.00;96802.47;4993119;28;20227;-64
2022/09/18 06:15:46;;;;;;;12.00;10.97;;;;;;;8.80;100.00;96809.94;4975393;28;20183;-65
2022/09/18 06:18:15;;;;;;;11.87;11.17;;;;;;;8.81;100.00;96806.31;4983824;28;20645;-64
2022/09/18 06:20:42;;;;;;;10.67;9.97;;;;;;;8.79;100.00;96808.34;4985829;28;20528;-65
2022/09/18 06:23:07;;;;;;;9.60;9.00;;;;;;;8.74;100.00;96798.53;4977463;28;20203;-66
2022/09/18 06:25:33;;;;;;;10.43;9.60;;;;;;;8.70;100.00;96813.03;4977532;28;20180;-65
2022/09/18 06:27:59;;;;;;;9.97;9.37;;;;;;;8.77;100.00;96815.59;4995034;28;20195;-64
2022/09/18 06:30:26;;;;;;;9.90;9.10;;;;;;;8.81;100.00;96821.97;4997060;28;20180;-65
2022/09/18 06:32:51;;;;;;;8.83;8.33;;;;;;;8.74;100.00;96822.06;4976986;28;20203;-65
2022/09/18 06:35:17;;;;;;;10.30;9.60;;;;;;;8.64;100.00;96826.13;4977513;28;20191;-65
2022/09/18 06:37:42;;;;;;;9.53;8.73;;;;;;;8.58;100.00;96816.56;4993362;28;20679;-65
2022/09/18 06:40:08;;;;;;;9.73;9.13;;;;;;;8.65;100.00;96822.53;4996893;28;20278;-65
2022/09/18 06:42:33;;;;;;;9.97;9.30;;;;;;;8.67;100.00;96817.88;4996850;28;20219;-64
2022/09/18 06:44:58;;;;;;;9.37;8.73;;;;;;;8.72;100.00;96813.63;4996450;28;20648;-65
2022/09/18 06:47:24;;;;;;;9.00;8.13;;;;;;;8.78;100.00;96819.81;4983250;28;20240;-64
2022/09/18 06:49:49;;;;;;;10.40;9.60;;;;;;;8.86;100.00;96819.53;4975704;28;20191;-64
2022/09/18 06:52:14;;;;;;;10.27;9.37;;;;;;;9.02;100.00;96821.63;4976001;28;20205;-64
2022/09/18 06:54:40;;;;;;;10.07;9.27;;;;;;;8.88;100.00;96814.88;4977460;28;20188;-64
2022/09/18 06:57:06;;;;;;;10.77;8.97;;;;;;;9.08;100.00;96806.88;4977228;28;20626;-64
2022/09/18 06:59:31;;;;;;;9.17;8.27;;;;;;;9.02;100.00;96808.53;4977362;28;20633;-64
2022/09/18 07:01:57;;;;;;;9.03;8.30;;;;;;;9.12;100.00;96810.66;4991401;28;20227;-64
2022/09/18 07:04:22;;;;;;;8.47;7.77;;;;;;;9.17;100.00;96816.03;4963070;28;20184;-65
2022/09/18 07:06:48;;;;;;;9.67;9.07;;;;;;;9.17;100.00;96803.75;4981140;28;20600;-64
2022/09/18 07:09:13;;;;;;;10.40;9.77;;;;;;;9.25;100.00;96809.72;4987558;28;20196;-65
2022/09/18 07:11:39;;;;;;;13.87;13.07;;;;;;;9.28;100.00;96812.69;4975868;28;20580;-65
2022/09/18 07:14:06;;;;;;;14.40;13.50;;;;;;;9.56;100.00;96802.53;4976409;28;20212;-65
2022/09/18 07:16:31;;;;;;;15.83;14.77;;;;;;;9.53;100.00;96821.25;4976952;28;20180;-65
2022/09/18 07:18:57;;;;;;;24.90;23.37;;;;;;;9.60;100.00;96808.09;4982010;28;20235;-65
2022/09/18 07:21:22;;;;;;;48.07;45.30;;;;;;;9.49;100.00;96808.84;4995928;28;20319;-64
2022/09/18 07:23:48;;;;;;;22.50;21.20;;;;;;;9.42;100.00;96813.34;4995507;28;20275;-64
2022/09/18 07:26:13;;;;;;;23.67;22.27;;;;;;;9.43;100.00;96807.91;4977737;28;20689;-66
2022/09/18 07:28:38;;;;;;;23.53;22.23;;;;;;;9.48;100.00;96805.41;4980075;28;20690;-65
2022/09/18 07:31:04;;;;;;;16.73;15.60;;;;;;;9.42;100.00;96815.94;4994589;28;20779;-66
2022/09/18 07:33:31;;;;;;;18.50;17.47;;;;;;;9.53;100.00;96807.38;4995448;28;20195;-66
2022/09/18 07:36:00;;;;;;;17.73;16.43;;;;;;;9.70;100.00;96812.81;4981927;28;20239;-65
2022/09/18 07:38:26;;;;;;;14.63;13.50;;;;;;;9.61;100.00;96825.41;4993487;28;20271;-65
2022/09/18 07:40:52;;;;;;;13.57;12.77;;;;;;;9.71;100.00;96822.25;4993138;28;20241;-65
2022/09/18 07:43:17;;;;;;;16.30;15.20;;;;;;;9.56;100.00;96831.31;4976282;28;20653;-65
2022/09/18 07:45:43;;;;;;;18.80;17.60;;;;;;;9.63;100.00;96833.06;4975978;28;20220;-64
2022/09/18 07:48:08;;;;;;;20.40;19.00;;;;;;;9.54;100.00;96829.91;4976173;28;20591;-65
2022/09/18 07:50:34;;;;;;;19.23;18.10;;;;;;;9.49;100.00;96835.81;4979896;28;20191;-65
2022/09/18 07:53:02;;;;;;;19.47;18.17;;;;;;;9.64;100.00;96832.81;4988286;28;20222;-64
2022/09/18 07:55:28;;;;;;;18.60;17.33;;;;;;;9.90;100.00;96834.31;4986268;28;20177;-66
2022/09/18 07:57:59;;;;;;;16.73;15.63;;;;;;;10.07;100.00;96835.31;4995201;28;20632;-66
2022/09/18 08:00:26;;;;;;;13.33;12.43;;;;;;;9.91;100.00;96846.41;4994909;28;20227;-65
2022/09/18 08:03:06;;;;;;;10.67;10.07;;;;;;;10.01;100.00;96852.72;4989789;28;21861;-66
2022/09/18 08:05:32;;;;;;;9.30;8.47;;;;;;;9.93;100.00;96847.75;4995200;28;20243;-65
2022/09/18 08:08:14;;;;;;;8.57;7.87;;;;;;;9.92;100.00;96848.78;4993493;28;20192;-66
2022/09/18 08:10:42;;;;;;;11.60;10.80;;;;;;;9.96;100.00;96842.09;4994161;28;20628;-69
2022/09/18 08:13:08;;;;;;;11.40;10.40;;;;;;;10.10;100.00;96847.16;4994549;28;20232;-66
2022/09/18 08:15:37;;;;;;;10.43;9.77;;;;;;;10.05;100.00;96842.59;4986863;28;20602;-67
2022/09/18 08:18:02;;;;;;;10.57;10.03;;;;;;;10.21;100.00;96852.47;4976077;28;20276;-66
2022/09/18 08:20:28;;;;;;;9.47;8.80;;;;;;;10.24;100.00;96859.91;4975834;28;20753;-67
2022/09/18 08:22:54;;;;;;;10.97;9.97;;;;;;;10.24;100.00;96866.94;4993865;28;20678;-67
2022/09/18 08:25:22;;;;;;;10.70;10.00;;;;;;;10.06;100.00;96862.50;4994894;28;20176;-67
2022/09/18 08:27:47;;;;;;;13.97;13.20;;;;;;;10.00;100.00;96866.81;4990069;28;20294;-68
2022/09/18 08:30:15;;;;;;;9.53;8.83;;;;;;;10.03;100.00;96866.38;4994698;28;20268;-66
2022/09/18 08:32:41;;;;;;;8.97;8.37;;;;;;;10.12;100.00;96871.31;4987588;28;20200;-65
2022/09/18 08:35:06;;;;;;;8.93;8.33;;;;;;;10.14;100.00;96869.28;4975265;28;20231;-66
2022/09/18 08:37:32;;;;;;;16.27;15.37;;;;;;;10.06;100.00;96872.19;4988499;28;20219;-66
2022/09/18 08:39:58;;;;;;;13.33;12.37;;;;;;;10.08;100.00;96867.53;4994142;28;20188;-66
2022/09/18 08:42:43;;;;;;;18.33;17.27;;;;;;;10.11;100.00;96872.31;4977047;28;20211;-68
2022/09/18 08:45:14;;;;;;;15.67;14.63;;;;;;;10.17;100.00;96869.66;4994735;28;20703;-68
2022/09/18 08:47:46;;;;;;;8.90;8.30;;;;;;;10.34;100.00;96873.25;4977628;28;20295;-69
2022/09/18 08:50:24;;;;;;;11.93;11.00;;;;;;;10.23;100.00;96862.72;4989535;28;20212;-67
2022/09/18 08:52:56;;;;;;;9.07;8.57;;;;;;;10.54;100.00;96869.53;4974439;28;20592;-67
2022/09/18 08:55:48;;;;;;;9.93;9.30;;;;;;;10.53;100.00;96867.97;4979423;28;20192;-67
2022/09/18 08:58:19;;;;;;;8.00;7.27;;;;;;;10.79;100.00;96865.75;4977925;28;20204;-67
2022/09/18 09:00:51;;;;;;;5.67;5.23;;;;;;;10.78;100.00;96864.13;4985968;28;20177;-68
2022/09/18 09:03:26;;;;;;;12.50;5.23;;;;;;;11.09;100.00;96862.25;4989725;28;20188;-67
2022/09/18 09:06:05;;;;;;;4.63;4.37;;;;;;;11.18;100.00;96864.28;4993573;28;20172;-67
2022/09/18 09:08:58;;;;;;;4.57;4.27;;;;;;;11.05;100.00;96863.72;5005854;28;20186;-68
2022/09/18 09:11:23;;;;;;;4.70;3.80;;;;;;;10.91;100.00;96867.59;4994192;28;20319;-67
2022/09/18 09:14:06;;;;;;;5.10;4.70;;;;;;;10.66;100.00;96865.13;4974648;28;20263;-67
2022/09/18 09:16:42;;;;;;;5.87;5.10;;;;;;;10.66;100.00;96863.31;4976931;28;20558;-68
2022/09/18 09:19:25;;;;;;;6.60;6.13;;;;;;;10.54;100.00;96875.59;4979476;28;20196;-67
2022/09/18 09:22:09;;;;;;;6.17;5.70;;;;;;;10.72;100.00;96874.72;4990136;28;20207;-67
2022/09/18 09:24:43;;;;;;;7.80;7.17;;;;;;;10.87;100.00;96867.22;4999392;28;20383;-67
2022/09/18 09:27:33;;;;;;;7.30;6.57;;;;;;;10.87;100.00;96867.22;4993368;28;20168;-67
2022/09/18 09:30:19;;;;;;;6.83;5.87;;;;;;;10.71;100.00;96868.69;4993708;28;20199;-67
2022/09/18 09:33:06;;;;;;;5.43;5.00;;;;;;;10.88;100.00;96874.06;4993650;28;20203;-67
2022/09/18 09:35:40;;;;;;;7.07;6.47;;;;;;;10.79;100.00;96873.59;4993726;28;20640;-68
2022/09/18 09:38:22;;;;;;;6.13;5.73;;;;;;;10.87;100.00;96867.22;4974144;28;20172;-67
2022/09/18 09:40:52;;;;;;;5.00;4.73;;;;;;;10.83;100.00;96863.47;4973725;28;20634;-67
2022/09/18 09:43:32;;;;;;;5.63;5.33;;;;;;;10.78;100.00;96866.75;4973794;28;20227;-67
2022/09/18 09:46:23;;;;;;;6.37;5.87;;;;;;;10.97;100.00;96851.75;4973595;28;20173;-68
2022/09/18 09:48:56;;;;;;;6.07;5.47;;;;;;;11.03;100.00;96863.16;4978778;28;20614;-68
2022/09/18 09:51:39;;;;;;;7.97;6.93;;;;;;;11.14;100.00;96854.50;4987002;28;20209;-68
2022/09/18 09:54:09;;;;;;;12.87;11.40;;;;;;;12.25;100.00;96853.38;4973950;28;20866;-71
2022/09/18 09:56:57;;;;;;;8.10;6.80;;;;;;;11.97;100.00;96860.22;4975103;28;20177;-67
2022/09/18 09:59:44;;;;;;;7.27;6.77;;;;;;;11.78;100.00;96853.53;4981885;28;20177;-68
2022/09/18 10:02:31;;;;;;;9.07;8.37;;;;;;;11.67;100.00;96854.31;4974442;28;20180;-67
2022/09/18 10:05:21;;;;;;;10.20;9.47;;;;;;;11.89;98.17;96857.94;4988925;28;20172;-68
2022/09/18 10:08:09;;;;;;;8.17;7.37;;;;;;;11.97;96.71;96856.78;4987811;28;20331;-68
2022/09/18 10:10:45;;;;;;;9.37;8.57;;;;;;;12.28;96.12;96858.16;4983427;28;20866;-69
2022/09/18 10:13:20;;;;;;;12.43;11.63;;;;;;;12.77;92.29;96846.13;4980920;28;20270;-68
2022/09/18 10:15:48;;;;;;;17.20;15.50;;;;;;;12.94;94.69;96849.56;4982562;28;20180;-68
2022/09/18 10:18:21;;;;;;;27.83;26.13;;;;;;;13.04;91.94;96841.03;4973367;28;20196;-68
2022/09/18 10:20:53;;;;;;;37.23;35.03;;;;;;;13.32;90.84;96847.00;4991497;28;20215;-68
2022/09/18 10:23:30;;;;;;;22.87;21.03;;;;;;;13.16;87.54;96850.44;4983040;28;20342;-68
2022/09/18 10:25:59;;;;;;;19.43;18.10;;;;;;;12.72;86.05;96843.41;4992278;28;20520;-68
2022/09/18 10:28:28;;;;;;;19.13;17.87;;;;;;;12.91;88.38;96844.78;4991919;28;20596;-67
2022/09/18 10:31:00;;;;;;;14.20;13.27;;;;;;;13.10;87.50;96840.84;4992072;28;20176;-67
2022/09/18 10:33:30;;;;;;;10.57;9.70;;;;;;;13.43;88.71;96839.25;4982939;28;20258;-68
2022/09/18 10:36:01;;;;;;;12.27;11.57;;;;;;;13.34;86.39;96833.59;4993065;28;20211;-67
2022/09/18 10:38:33;;;;;;;8.67;8.00;;;;;;;13.41;86.39;96842.13;4993188;28;20495;-68
2022/09/18 10:41:20;;;;;;;27.83;26.20;;;;;;;13.57;82.82;96835.22;4992905;28;20172;-68
2022/09/18 10:43:56;;;;;;;32.53;30.60;;;;;;;13.73;80.69;96829.91;4993137;28;20234;-67
2022/09/18 10:46:31;;;;;;;44.30;41.80;;;;;;;14.07;79.78;96822.66;4992626;28;20651;-67
2022/09/18 10:49:01;;;;;;;30.80;29.07;;;;;;;13.92;77.99;96830.41;4976363;28;20195;-68
2022/09/18 10:51:28;;;;;;;26.93;25.20;;;;;;;13.98;76.42;96825.97;4992997;28;20663;-67
2022/09/18 10:54:03;;;;;;;21.90;20.67;;;;;;;13.87;76.71;96826.91;4992356;28;20195;-67
2022/09/18 10:56:28;;;;;;;21.70;20.33;;;;;;;13.59;78.34;96831.31;4985165;28;20559;-67
2022/09/18 10:58:54;;;;;;;146.07;138.23;;;;;;;13.65;75.67;96830.31;4975422;28;20180;-67
2022/09/18 11:01:20;;;;;;;46.80;44.13;;;;;;;13.61;71.75;96831.84;4992157;28;20656;-67
2022/09/18 11:03:51;;;;;;;44.23;41.83;;;;;;;13.90;70.20;96826.41;4992285;28;20579;-67
2022/09/18 11:06:28;;;;;;;131.70;124.73;;;;;;;13.73;67.98;96816.72;4991997;28;20306;-67
2022/09/18 11:08:56;;;;;;;123.83;117.37;;;;;;;14.06;66.60;96818.41;4990351;28;20172;-67
2022/09/18 11:11:29;;;;;;;136.53;129.23;;;;;;;14.24;65.97;96798.03;4984943;28;20684;-66
2022/09/18 11:14:00;;;;;;;158.47;150.43;;;;;;;13.94;66.80;96806.41;4991261;28;20188;-66
2022/09/18 11:16:38;;;;;;;181.73;172.40;;;;;;;13.98;66.66;96804.91;4976858;28;20518;-66
2022/09/18 11:19:14;;;;;;;169.97;161.27;;;;;;;14.04;66.39;96809.94;4979977;28;20363;-67
2022/09/18 11:21:45;;;;;;;131.20;124.33;;;;;;;13.87;65.98;96803.19;4996371;28;20176;-66
2022/09/18 11:24:18;;;;;;;169.20;160.67;;;;;;;14.03;66.16;96810.22;4996061;28;20184;-66
2022/09/18 11:27:18;;;;;;;170.30;161.40;;;;;;;13.98;66.39;96799.63;4996409;28;20636;-66
2022/09/18 11:29:43;;;;;;;137.80;130.47;;;;;;;14.20;64.94;96797.75;4991331;28;20200;-66
2022/09/18 11:32:20;;;;;;;110.83;105.10;;;;;;;14.06;65.37;96799.16;4995719;28;20203;-66
2022/09/18 11:34:52;;;;;;;106.43;100.50;;;;;;;13.98;66.02;96797.00;4995975;28;20307;-66
2022/09/18 11:37:34;;;;;;;84.60;80.20;;;;;;;14.18;65.86;96793.75;4994231;28;20184;-67
2022/09/18 11:40:07;;;;;;;49.63;46.87;;;;;;;14.09;65.49;96781.03;4977758;28;20169;-66